^^
Datos históricos de la estación: Murcia-Puente Tocinos
Diario Informe para Junio 18, 2019 Unidades:  Métrico    Inglés   Ambas
Diario Semanal Mensual Anual Configurable
  Máximo: Mínimo: Media:
Temperatura: 30.6 °C 17.7 °C 23.8 °C
Punto de rocio: 17.4 °C 10.8 °C 13.9 °C
Humedad: 84% 32% 57%
Velocidad viento: 19.8km/h 0.0km/h 9km/h
Racha viento: 33.5km/h - -
Viento- - ESE
Presión: 1014.8 hPa 1010.6 hPa -
Precipitación: 0.0 mm    
Historical Graphs
 
 
Tabla de datos para Junio 18, 2019
Hora Temperatura Punto de rocio Presión Viento Velocidad viento Racha viento Humedad Intensidad lluvia(por hora) Nubes
00:04 20.4 °C 15.8 °C 1014.8 hPa NNE 10.3 km/h 14.8 km/h 75% 0.0 mm CLR
00:09 20.4 °C 15.8 °C 1014.8 hPa NE 10.0 km/h 11.1 km/h 75% 0.0 mm CLR
00:14 20.3 °C 15.9 °C 1014.8 hPa NNE 10.0 km/h 11.1 km/h 76% 0.0 mm CLR
00:19 20.3 °C 15.9 °C 1014.7 hPa NE 8.7 km/h 14.8 km/h 76% 0.0 mm CLR
00:24 20.2 °C 15.8 °C 1014.7 hPa ENE 8.7 km/h 13.0 km/h 76% 0.0 mm CLR
00:29 20.2 °C 15.8 °C 1014.7 hPa NE 10.3 km/h 11.1 km/h 76% 0.0 mm CLR
00:34 20.1 °C 15.7 °C 1014.8 hPa NNE 10.3 km/h 13.0 km/h 76% 0.0 mm CLR
00:39 20.1 °C 15.9 °C 1014.8 hPa ENE 8.4 km/h 14.8 km/h 77% 0.0 mm CLR
00:44 20.0 °C 16.2 °C 1014.8 hPa NE 8.4 km/h 9.5 km/h 79% 0.0 mm CLR
00:49 19.9 °C 16.2 °C 1014.6 hPa NNE 8.4 km/h 13.0 km/h 79% 0.0 mm CLR
00:54 19.9 °C 16.3 °C 1014.6 hPa East 8.4 km/h 10.0 km/h 80% 0.0 mm CLR
00:59 19.7 °C 16.2 °C 1014.6 hPa NE 7.6 km/h 13.7 km/h 80% 0.0 mm CLR
01:04 19.7 °C 16.3 °C 1014.4 hPa NE 7.6 km/h 13.0 km/h 81% 0.0 mm CLR
01:09 19.6 °C 16.2 °C 1014.4 hPa ENE 8.7 km/h 8.4 km/h 81% 0.0 mm CLR
01:14 19.6 °C 16.4 °C 1014.4 hPa NE 8.7 km/h 11.1 km/h 82% 0.0 mm CLR
01:19 19.4 °C 16.2 °C 1014.4 hPa NE 7.6 km/h 13.0 km/h 82% 0.0 mm CLR
01:24 19.4 °C 16.2 °C 1014.4 hPa NE 7.6 km/h 9.3 km/h 82% 0.0 mm CLR
01:29 19.4 °C 16.4 °C 1014.4 hPa NE 8.4 km/h 9.3 km/h 83% 0.0 mm CLR
01:34 19.3 °C 16.3 °C 1014.4 hPa ENE 8.4 km/h 9.3 km/h 83% 0.0 mm CLR
01:39 19.3 °C 16.2 °C 1014.4 hPa NNE 5.8 km/h 4.7 km/h 82% 0.0 mm CLR
01:44 19.3 °C 16.2 °C 1014.4 hPa NE 5.8 km/h 9.3 km/h 82% 0.0 mm CLR
01:49 19.3 °C 16.3 °C 1014.3 hPa NE 3.9 km/h 7.6 km/h 83% 0.0 mm CLR
01:54 19.2 °C 16.1 °C 1014.3 hPa NE 3.9 km/h   82% 0.0 mm CLR
01:59 19.2 °C 16.2 °C 1014.3 hPa NE 3.2 km/h 5.8 km/h 83% 0.0 mm CLR
02:04 19.2 °C 16.2 °C 1014.2 hPa NE 3.2 km/h 7.6 km/h 83% 0.0 mm CLR
02:09 19.1 °C 16.2 °C 1014.2 hPa NE 5.0 km/h 8.4 km/h 83% 0.0 mm CLR
02:14 19.0 °C 15.8 °C 1014.2 hPa NE 5.0 km/h 7.4 km/h 82% 0.0 mm CLR
02:19 18.9 °C 15.6 °C 1014.2 hPa NE 3.9 km/h 5.6 km/h 81% 0.0 mm CLR
02:24 18.9 °C 15.4 °C 1014.2 hPa NE 3.9 km/h 7.4 km/h 80% 0.0 mm CLR
02:29 18.9 °C 15.8 °C 1014.2 hPa NNE 3.9 km/h 3.7 km/h 82% 0.0 mm CLR
02:34 18.9 °C 15.9 °C 1014.2 hPa NE 3.9 km/h 7.4 km/h 83% 0.0 mm CLR
02:39 19.0 °C 16.2 °C 1014.2 hPa NE 3.2 km/h 3.7 km/h 84% 0.0 mm CLR
02:44 19.1 °C 16.3 °C 1014.2 hPa NE 3.2 km/h 3.9 km/h 84% 0.0 mm CLR
02:49 19.1 °C 16.3 °C 1014.2 hPa Calm     84% 0.0 mm CLR
02:54 19.1 °C 16.3 °C 1014.2 hPa Calm   3.7 km/h 84% 0.0 mm CLR
02:59 19.1 °C 15.9 °C 1014.2 hPa Calm   1.9 km/h 82% 0.0 mm CLR
03:04 18.9 °C 15.4 °C 1014.0 hPa Calm     80% 0.0 mm CLR
03:09 18.9 °C 15.6 °C 1014.0 hPa Calm     81% 0.0 mm CLR
03:14 19.0 °C 15.8 °C 1014.0 hPa Calm     82% 0.0 mm CLR
03:19 19.1 °C 15.9 °C 1013.7 hPa Calm     82% 0.0 mm CLR
03:24 19.1 °C 15.9 °C 1013.7 hPa Calm     82% 0.0 mm CLR
03:29 19.2 °C 16.1 °C 1013.7 hPa Calm     82% 0.0 mm CLR
03:34 19.2 °C 16.1 °C 1013.7 hPa Calm     82% 0.0 mm CLR
03:39 19.2 °C 16.1 °C 1013.7 hPa Calm     82% 0.0 mm CLR
03:44 19.2 °C 16.1 °C 1013.7 hPa Calm     82% 0.0 mm CLR
03:49 19.1 °C 15.9 °C 1013.5 hPa Calm     82% 0.0 mm CLR
03:54 19.1 °C 15.9 °C 1013.5 hPa Calm     82% 0.0 mm CLR
03:59 19.0 °C 15.8 °C 1013.5 hPa Calm     82% 0.0 mm CLR
04:04 18.8 °C 14.9 °C 1013.4 hPa Calm   5.6 km/h 78% 0.0 mm CLR
04:09 18.6 °C 14.5 °C 1013.4 hPa ENE 2.9 km/h 5.6 km/h 77% 0.0 mm CLR
04:14 18.5 °C 14.2 °C 1013.4 hPa ENE 2.9 km/h   76% 0.0 mm CLR
04:19 18.4 °C 13.9 °C 1013.3 hPa ENE 2.3 km/h 1.9 km/h 75% 0.0 mm CLR
04:24 18.5 °C 13.8 °C 1013.3 hPa ENE 2.3 km/h   74% 0.0 mm CLR
04:29 18.5 °C 13.6 °C 1013.3 hPa Calm     73% 0.0 mm CLR
04:34 18.5 °C 12.9 °C 1013.2 hPa Calm   7.4 km/h 70% 0.0 mm CLR
04:39 18.4 °C 12.8 °C 1013.2 hPa ESE 3.9 km/h 7.4 km/h 70% 0.0 mm CLR
04:44 18.4 °C 12.4 °C 1013.2 hPa SE 3.9 km/h 5.8 km/h 68% 0.0 mm CLR
04:49 18.3 °C 12.3 °C 1013.3 hPa SE 4.7 km/h 5.6 km/h 68% 0.0 mm CLR
04:54 18.3 °C 12.3 °C 1013.3 hPa SE 4.7 km/h 7.4 km/h 68% 0.0 mm CLR
04:59 18.4 °C 12.4 °C 1013.3 hPa SE 4.7 km/h 5.6 km/h 68% 0.0 mm CLR
05:04 18.3 °C 12.3 °C 1013.2 hPa SSE 4.7 km/h 5.6 km/h 68% 0.0 mm CLR
05:09 18.3 °C 12.3 °C 1013.2 hPa SSE 3.9 km/h 7.4 km/h 68% 0.0 mm CLR
05:14 18.3 °C 12.3 °C 1013.2 hPa SSE 3.9 km/h 3.7 km/h 68% 0.0 mm CLR
05:19 18.3 °C 12.3 °C 1013.3 hPa SSE 2.9 km/h   68% 0.0 mm CLR
05:24 18.3 °C 12.3 °C 1013.3 hPa SSE 2.9 km/h   68% 0.0 mm CLR
05:29 18.4 °C 12.4 °C 1013.3 hPa Calm     68% 0.0 mm CLR
05:34 18.3 °C 12.5 °C 1013.2 hPa Calm     69% 0.0 mm CLR
05:39 18.2 °C 12.4 °C 1013.2 hPa Calm     69% 0.0 mm CLR
05:44 18.2 °C 12.6 °C 1013.2 hPa Calm     70% 0.0 mm CLR
05:49 18.1 °C 12.6 °C 1013.3 hPa Calm   3.7 km/h 70% 0.0 mm CLR
05:54 18.1 °C 12.6 °C 1013.3 hPa Calm     70% 0.0 mm CLR
05:59 18.0 °C 12.7 °C 1013.3 hPa Calm     71% 0.0 mm CLR
06:04 17.9 °C 12.6 °C 1013.4 hPa Calm     71% 0.0 mm CLR
06:09 17.9 °C 12.8 °C 1013.4 hPa Calm     72% 0.0 mm CLR
06:14 17.9 °C 12.8 °C 1013.4 hPa Calm     72% 0.0 mm CLR
06:19 17.8 °C 12.7 °C 1013.5 hPa Calm     72% 0.0 mm CLR
06:24 17.8 °C 13.3 °C 1013.5 hPa Calm     75% 0.0 mm CLR
06:29 17.8 °C 13.3 °C 1013.5 hPa Calm     75% 0.0 mm CLR
06:34 17.7 °C 12.4 °C 1013.5 hPa Calm   5.8 km/h 71% 0.0 mm CLR
06:39 17.7 °C 12.2 °C 1013.5 hPa South 3.2 km/h 7.4 km/h 70% 0.0 mm CLR
06:44 17.8 °C 12.3 °C 1013.5 hPa SSW 3.2 km/h 7.6 km/h 70% 0.0 mm CLR
06:49 17.8 °C 12.3 °C 1013.6 hPa SSW 5.0 km/h 7.6 km/h 70% 0.0 mm CLR
06:54 17.9 °C 12.3 °C 1013.6 hPa SSE 5.0 km/h 7.4 km/h 70% 0.0 mm CLR
06:59 18.0 °C 12.4 °C 1013.6 hPa SSE 4.7 km/h 7.4 km/h 70% 0.0 mm CLR
07:04 17.9 °C 12.1 °C 1013.6 hPa South 4.7 km/h 7.4 km/h 69% 0.0 mm CLR
07:09 18.0 °C 12.2 °C 1013.6 hPa South 5.8 km/h 9.3 km/h 69% 0.0 mm CLR
07:14 18.0 °C 12.2 °C 1013.6 hPa South 5.8 km/h 9.3 km/h 69% 0.0 mm CLR
07:19 18.0 °C 12.2 °C 1013.8 hPa SW 6.4 km/h 7.4 km/h 69% 0.0 mm CLR
07:24 18.1 °C 12.6 °C 1013.8 hPa SSW 6.4 km/h 7.4 km/h 70% 0.0 mm CLR
07:29 18.1 °C 12.3 °C 1013.8 hPa SW 5.8 km/h 9.3 km/h 69% 0.0 mm CLR
07:34 18.1 °C 12.3 °C 1013.8 hPa SW 5.8 km/h 11.1 km/h 69% 0.0 mm CLR
07:39 18.1 °C 12.3 °C 1013.8 hPa SSW 6.9 km/h 9.3 km/h 69% 0.0 mm CLR
07:44 18.2 °C 12.2 °C 1013.8 hPa South 6.9 km/h 7.4 km/h 68% 0.0 mm CLR
07:49 18.3 °C 12.1 °C 1013.9 hPa SW 6.9 km/h 9.3 km/h 67% 0.0 mm CLR
07:54 18.4 °C 11.9 °C 1013.9 hPa SSE 6.9 km/h 9.3 km/h 66% 0.0 mm CLR
07:59 18.5 °C 12.0 °C 1013.9 hPa South 6.4 km/h 9.3 km/h 66% 0.0 mm CLR
08:04 18.7 °C 12.0 °C 1014.1 hPa South 6.4 km/h 9.3 km/h 65% 0.0 mm CLR
08:09 18.8 °C 11.8 °C 1014.1 hPa SSE 6.4 km/h 8.7 km/h 64% 0.0 mm CLR
08:14 19.0 °C 12.1 °C 1014.1 hPa SSE 6.4 km/h 9.3 km/h 64% 0.0 mm CLR
08:19 19.1 °C 11.7 °C 1014.0 hPa SSW 6.9 km/h 9.3 km/h 62% 0.0 mm CLR
08:24 19.2 °C 11.7 °C 1014.0 hPa SSW 6.9 km/h 9.3 km/h 62% 0.0 mm CLR
08:29 19.3 °C 11.8 °C 1014.0 hPa SSE 6.4 km/h 9.3 km/h 62% 0.0 mm CLR
08:34 19.5 °C 11.8 °C 1014.1 hPa SSW 6.4 km/h 7.4 km/h 61% 0.0 mm CLR
08:39 19.7 °C 11.7 °C 1014.1 hPa SW 4.7 km/h 3.7 km/h 60% 0.0 mm CLR
08:44 20.0 °C 11.5 °C 1014.1 hPa WSW 4.7 km/h 6.4 km/h 58% 0.0 mm CLR
08:49 20.2 °C 11.7 °C 1014.0 hPa WSW 3.2 km/h 5.6 km/h 58% 0.0 mm CLR
08:54 20.3 °C 11.2 °C 1014.0 hPa WNW 3.2 km/h 7.4 km/h 56% 0.0 mm CLR
08:59 20.4 °C 11.1 °C 1014.0 hPa West 3.2 km/h 3.7 km/h 55% 0.0 mm CLR
09:04 20.6 °C 11.2 °C 1014.1 hPa NW 3.2 km/h 5.6 km/h 55% 0.0 mm CLR
09:09 20.7 °C 10.8 °C 1014.1 hPa NW 3.2 km/h 5.6 km/h 53% 0.0 mm CLR
09:14 21.0 °C 11.3 °C 1014.1 hPa NW 3.2 km/h 5.6 km/h 54% 0.0 mm CLR
09:19 21.2 °C 10.9 °C 1014.1 hPa NW 2.9 km/h 5.6 km/h 52% 0.0 mm CLR
09:24 21.4 °C 11.1 °C 1014.1 hPa WNW 2.9 km/h 4.7 km/h 52% 0.0 mm CLR
09:29 21.6 °C 11.3 °C 1014.1 hPa West 3.2 km/h 5.6 km/h 52% 0.0 mm CLR
09:34 21.7 °C 11.1 °C 1014.0 hPa West 3.2 km/h 5.6 km/h 51% 0.0 mm CLR
09:39 21.8 °C 11.2 °C 1014.0 hPa NW 2.9 km/h 2.3 km/h 51% 0.0 mm CLR
09:44 22.4 °C 11.4 °C 1014.0 hPa ESE 2.9 km/h 5.6 km/h 50% 0.0 mm CLR
09:49 22.9 °C 11.3 °C 1014.0 hPa ESE 2.3 km/h 3.7 km/h 48% 0.0 mm CLR
09:54 23.3 °C 11.3 °C 1014.0 hPa NW 2.3 km/h 5.6 km/h 47% 0.0 mm CLR
09:59 23.6 °C 11.6 °C 1014.0 hPa NE 2.9 km/h 5.6 km/h 47% 0.0 mm CLR
10:04 23.8 °C 11.5 °C 1014.1 hPa East 2.9 km/h 5.6 km/h 46% 0.0 mm CLR
10:09 23.7 °C 11.4 °C 1014.1 hPa NNW 3.9 km/h 7.4 km/h 46% 0.0 mm CLR
10:14 23.6 °C 11.6 °C 1014.1 hPa NNW 3.9 km/h 5.0 km/h 47% 0.0 mm CLR
10:19 23.8 °C 11.5 °C 1013.8 hPa NNE 3.2 km/h 5.8 km/h 46% 0.0 mm CLR
10:24 24.0 °C 11.3 °C 1013.8 hPa NNE 3.2 km/h 7.6 km/h 45% 0.0 mm CLR
10:29 24.1 °C 11.4 °C 1013.8 hPa North 4.7 km/h 7.4 km/h 45% 0.0 mm CLR
10:34 24.2 °C 11.5 °C 1013.8 hPa North 4.7 km/h 10.3 km/h 45% 0.0 mm CLR
10:39 24.1 °C 11.8 °C 1013.8 hPa NNE 5.8 km/h 12.2 km/h 46% 0.0 mm CLR
10:44 24.1 °C 12.1 °C 1013.8 hPa NNW 5.8 km/h 9.3 km/h 47% 0.0 mm CLR
10:49 24.4 °C 12.0 °C 1013.7 hPa NE 6.9 km/h 14.0 km/h 46% 0.0 mm CLR
10:54 24.4 °C 12.0 °C 1013.7 hPa NNE 6.9 km/h 11.1 km/h 46% 0.0 mm CLR
10:59 24.6 °C 12.2 °C 1013.7 hPa NNW 6.9 km/h 14.8 km/h 46% 0.0 mm CLR
11:04 24.9 °C 12.5 °C 1013.7 hPa ESE 6.9 km/h 11.1 km/h 46% 0.0 mm CLR
11:09 25.2 °C 12.8 °C 1013.7 hPa NE 6.9 km/h 7.4 km/h 46% 0.0 mm CLR
11:14 25.3 °C 12.5 °C 1013.7 hPa NE 6.9 km/h 9.3 km/h 45% 0.0 mm CLR
11:19 25.4 °C 12.9 °C 1013.7 hPa NNE 6.4 km/h 10.0 km/h 46% 0.0 mm CLR
11:24 25.6 °C 13.1 °C 1013.7 hPa NE 6.4 km/h 13.7 km/h 46% 0.0 mm CLR
11:29 25.7 °C 13.6 °C 1013.7 hPa ENE 8.7 km/h 13.0 km/h 47% 0.0 mm CLR
11:34 25.8 °C 13.6 °C 1013.7 hPa NNE 8.7 km/h 14.8 km/h 47% 0.0 mm CLR
11:39 26.2 °C 14.0 °C 1013.7 hPa NE 6.9 km/h 13.0 km/h 47% 0.0 mm CLR
11:44 26.2 °C 14.0 °C 1013.7 hPa ESE 6.9 km/h 13.0 km/h 47% 0.0 mm CLR
11:49 26.3 °C 14.1 °C 1013.6 hPa ESE 8.7 km/h 14.0 km/h 47% 0.0 mm CLR
11:54 26.4 °C 14.2 °C 1013.6 hPa NE 8.7 km/h 13.0 km/h 47% 0.0 mm CLR
11:59 26.6 °C 14.3 °C 1013.6 hPa NNW 8.7 km/h 11.9 km/h 47% 0.0 mm CLR
12:04 26.9 °C 14.6 °C 1013.5 hPa NE 8.7 km/h 16.1 km/h 47% 0.0 mm CLR
12:09 27.0 °C 14.4 °C 1013.5 hPa East 8.4 km/h 7.6 km/h 46% 0.0 mm CLR
12:14 27.1 °C 14.8 °C 1013.5 hPa North 8.4 km/h 14.8 km/h 47% 0.0 mm CLR
12:19 27.2 °C 14.9 °C 1013.4 hPa ENE 7.6 km/h 11.9 km/h 47% 0.0 mm CLR
12:24 27.3 °C 15.0 °C 1013.4 hPa NNE 7.6 km/h 7.4 km/h 47% 0.0 mm CLR
12:29 27.4 °C 13.3 °C 1013.4 hPa ESE 8.7 km/h 18.3 km/h 42% 0.0 mm CLR
12:34 27.6 °C 13.2 °C 1013.5 hPa SE 8.7 km/h 18.5 km/h 41% 0.0 mm CLR
12:39 27.9 °C 13.4 °C 1013.5 hPa East 11.1 km/h 15.6 km/h 41% 0.0 mm CLR
12:44 27.9 °C 13.1 °C 1013.5 hPa SE 11.1 km/h 16.1 km/h 40% 0.0 mm CLR
12:49 28.1 °C 12.8 °C 1013.4 hPa SSE 11.9 km/h 12.2 km/h 39% 0.0 mm CLR
12:54 28.2 °C 12.6 °C 1013.4 hPa SSE 11.9 km/h 20.4 km/h 38% 0.0 mm CLR
12:59 28.1 °C 12.1 °C 1013.4 hPa East 11.9 km/h 16.7 km/h 37% 0.0 mm CLR
13:04 28.1 °C 12.8 °C 1013.2 hPa SE 11.9 km/h 22.2 km/h 39% 0.0 mm CLR
13:09 28.0 °C 12.3 °C 1013.2 hPa SSW 12.2 km/h 16.7 km/h 38% 0.0 mm CLR
13:14 28.0 °C 12.3 °C 1013.2 hPa ENE 12.2 km/h 13.0 km/h 38% 0.0 mm CLR
13:19 28.1 °C 11.2 °C 1013.3 hPa SE 11.9 km/h 25.9 km/h 35% 0.0 mm CLR
13:24 28.3 °C 11.8 °C 1013.3 hPa ESE 11.9 km/h 11.9 km/h 36% 0.0 mm CLR
13:29 28.3 °C 12.6 °C 1013.3 hPa East 13.0 km/h 18.5 km/h 38% 0.0 mm CLR
13:34 28.3 °C 12.2 °C 1013.3 hPa SE 13.0 km/h 20.4 km/h 37% 0.0 mm CLR
13:39 28.6 °C 12.9 °C 1013.3 hPa SE 11.9 km/h 22.2 km/h 38% 0.0 mm CLR
13:44 28.6 °C 12.5 °C 1013.3 hPa ESE 11.9 km/h 25.9 km/h 37% 0.0 mm CLR
13:49 28.7 °C 13.0 °C 1013.2 hPa ESE 13.0 km/h 16.7 km/h 38% 0.0 mm CLR
13:54 28.7 °C 12.6 °C 1013.2 hPa SE 13.0 km/h 13.0 km/h 37% 0.0 mm CLR
13:59 28.7 °C 13.4 °C 1013.2 hPa ENE 11.9 km/h 23.7 km/h 39% 0.0 mm CLR
14:04 28.9 °C 13.9 °C 1012.9 hPa SE 11.9 km/h 22.2 km/h 40% 0.0 mm CLR
14:09 28.9 °C 13.9 °C 1012.9 hPa SE 14.0 km/h 16.7 km/h 40% 0.0 mm CLR
14:14 28.9 °C 15.4 °C 1012.9 hPa East 14.0 km/h 33.3 km/h 44% 0.0 mm CLR
14:19 29.0 °C 15.2 °C 1012.6 hPa ENE 14.0 km/h 20.4 km/h 43% 0.0 mm CLR
14:24 28.8 °C 14.6 °C 1012.6 hPa ESE 14.0 km/h 29.6 km/h 42% 0.0 mm CLR
14:29 28.8 °C 14.6 °C 1012.6 hPa East 14.8 km/h 25.9 km/h 42% 0.0 mm CLR
14:34 28.9 °C 14.7 °C 1012.4 hPa SE 14.8 km/h 25.9 km/h 42% 0.0 mm CLR
14:39 29.2 °C 14.2 °C 1012.4 hPa SE 15.6 km/h 22.2 km/h 40% 0.0 mm CLR
14:44 29.2 °C 13.8 °C 1012.4 hPa SE 15.6 km/h 25.9 km/h 39% 0.0 mm CLR
14:49 29.1 °C 14.5 °C 1012.2 hPa East 14.8 km/h 20.4 km/h 41% 0.0 mm CLR
14:54 29.3 °C 15.1 °C 1012.2 hPa ESE 14.8 km/h 18.5 km/h 42% 0.0 mm CLR
14:59 29.4 °C 14.4 °C 1012.2 hPa ESE 14.0 km/h 20.4 km/h 40% 0.0 mm CLR
15:04 29.3 °C 15.1 °C 1012.0 hPa SE 14.0 km/h 31.5 km/h 42% 0.0 mm CLR
15:09 29.4 °C 15.2 °C 1012.0 hPa SE 14.8 km/h 18.5 km/h 42% 0.0 mm CLR
15:14 29.4 °C 15.9 °C 1012.0 hPa SE 14.8 km/h 24.1 km/h 44% 0.0 mm CLR
15:19 29.5 °C 15.6 °C 1012.0 hPa ESE 18.0 km/h 22.2 km/h 43% 0.0 mm CLR
15:24 29.8 °C 15.5 °C 1012.0 hPa ESE 18.0 km/h 27.8 km/h 42% 0.0 mm CLR
15:29 29.7 °C 15.1 °C 1012.0 hPa SE 15.6 km/h 24.1 km/h 41% 0.0 mm CLR
15:34 29.7 °C 15.1 °C 1011.8 hPa ESE 15.6 km/h 24.1 km/h 41% 0.0 mm CLR
15:39 29.8 °C 15.1 °C 1011.8 hPa SE 15.6 km/h 25.1 km/h 41% 0.0 mm CLR
15:44 29.7 °C 15.1 °C 1011.8 hPa ESE 15.6 km/h 25.9 km/h 41% 0.0 mm CLR
15:49 29.6 °C 14.6 °C 1011.7 hPa ESE 17.2 km/h 24.1 km/h 40% 0.0 mm CLR
15:54 29.6 °C 14.9 °C 1011.7 hPa ESE 17.2 km/h 24.1 km/h 41% 0.0 mm CLR
15:59 29.6 °C 15.3 °C 1011.7 hPa ESE 19.0 km/h 25.9 km/h 42% 0.0 mm CLR
16:04 29.7 °C 14.7 °C 1011.5 hPa ESE 19.0 km/h 22.2 km/h 40% 0.0 mm CLR
16:09 29.9 °C 14.8 °C 1011.5 hPa East 16.1 km/h 33.3 km/h 40% 0.0 mm CLR
16:14 30.0 °C 14.6 °C 1011.5 hPa ENE 16.1 km/h 21.7 km/h 39% 0.0 mm CLR
16:19 30.1 °C 13.8 °C 1011.4 hPa ESE 17.2 km/h 24.1 km/h 37% 0.0 mm CLR
16:24 30.2 °C 13.5 °C 1011.4 hPa ESE 17.2 km/h 33.5 km/h 36% 0.0 mm CLR
16:29 30.2 °C 12.6 °C 1011.4 hPa SE 18.3 km/h 20.4 km/h 34% 0.0 mm CLR
16:34 30.3 °C 12.2 °C 1011.2 hPa SE 18.3 km/h 25.9 km/h 33% 0.0 mm CLR
16:39 30.4 °C 11.8 °C 1011.2 hPa East 15.6 km/h 16.7 km/h 32% 0.0 mm CLR
16:44 30.6 °C 12.0 °C 1011.2 hPa ESE 15.6 km/h 29.6 km/h 32% 0.0 mm CLR
16:49 30.4 °C 11.8 °C 1011.1 hPa ESE 17.2 km/h 29.6 km/h 32% 0.0 mm CLR
16:54 30.2 °C 12.6 °C 1011.1 hPa East 17.2 km/h 29.6 km/h 34% 0.0 mm CLR
16:59 30.1 °C 12.9 °C 1011.1 hPa ESE 18.0 km/h 24.1 km/h 35% 0.0 mm CLR
17:04 30.2 °C 12.6 °C 1011.0 hPa ESE 18.0 km/h 31.5 km/h 34% 0.0 mm CLR
17:09 30.3 °C 13.1 °C 1011.0 hPa East 18.3 km/h 21.7 km/h 35% 0.0 mm CLR
17:14 30.4 °C 13.2 °C 1011.0 hPa East 18.3 km/h 22.2 km/h 35% 0.0 mm CLR
17:19 30.3 °C 13.1 °C 1011.1 hPa SE 16.4 km/h 33.5 km/h 35% 0.0 mm CLR
17:24 30.1 °C 12.9 °C 1011.1 hPa SE 16.4 km/h 25.9 km/h 35% 0.0 mm CLR
17:29 30.1 °C 12.5 °C 1011.1 hPa ESE 18.0 km/h 18.5 km/h 34% 0.0 mm CLR
17:34 30.2 °C 13.1 °C 1011.1 hPa SSE 18.0 km/h 25.9 km/h 35% 0.0 mm CLR
17:39 29.8 °C 12.7 °C 1011.1 hPa SE 18.0 km/h 24.1 km/h 35% 0.0 mm CLR
17:44 29.8 °C 12.7 °C 1011.1 hPa SE 18.0 km/h 31.5 km/h 35% 0.0 mm CLR
17:49 29.9 °C 12.8 °C 1011.0 hPa ESE 19.8 km/h 24.1 km/h 35% 0.0 mm CLR
17:54 29.8 °C 12.7 °C 1011.0 hPa ESE 19.8 km/h 20.4 km/h 35% 0.0 mm CLR
17:59 30.1 °C 12.5 °C 1011.0 hPa SE 17.2 km/h 22.2 km/h 34% 0.0 mm CLR
18:04 30.1 °C 11.6 °C 1010.9 hPa SE 17.2 km/h 25.1 km/h 32% 0.0 mm CLR
18:09 30.1 °C 12.1 °C 1010.9 hPa ESE 15.6 km/h 25.9 km/h 33% 0.0 mm CLR
18:14 30.0 °C 12.4 °C 1010.9 hPa ESE 15.6 km/h 19.8 km/h 34% 0.0 mm CLR
18:19 29.7 °C 13.1 °C 1010.8 hPa ESE 16.1 km/h 25.9 km/h 36% 0.0 mm CLR
18:24 29.7 °C 12.6 °C 1010.8 hPa SSE 16.1 km/h 20.4 km/h 35% 0.0 mm CLR
18:29 29.7 °C 13.1 °C 1010.8 hPa ESE 13.7 km/h 27.8 km/h 36% 0.0 mm CLR
18:34 29.4 °C 13.2 °C 1010.8 hPa ESE 13.7 km/h 29.1 km/h 37% 0.0 mm CLR
18:39 29.4 °C 13.2 °C 1010.8 hPa ESE 18.3 km/h 22.2 km/h 37% 0.0 mm CLR
18:44 29.4 °C 13.2 °C 1010.8 hPa SE 18.3 km/h 22.2 km/h 37% 0.0 mm CLR
18:49 29.2 °C 13.4 °C 1010.7 hPa ESE 15.6 km/h 29.6 km/h 38% 0.0 mm CLR
18:54 29.2 °C 13.4 °C 1010.7 hPa SE 15.6 km/h 24.1 km/h 38% 0.0 mm CLR
18:59 29.2 °C 13.4 °C 1010.7 hPa SE 16.1 km/h 21.7 km/h 38% 0.0 mm CLR
19:04 29.2 °C 13.0 °C 1010.7 hPa SE 16.1 km/h 18.5 km/h 37% 0.0 mm CLR
19:09 29.2 °C 13.0 °C 1010.7 hPa ESE 14.8 km/h 27.8 km/h 37% 0.0 mm CLR
19:14 29.0 °C 12.8 °C 1010.7 hPa East 14.8 km/h 25.9 km/h 37% 0.0 mm CLR
19:19 29.1 °C 12.5 °C 1010.6 hPa SSE 16.4 km/h 13.0 km/h 36% 0.0 mm CLR
19:24 29.2 °C 12.2 °C 1010.6 hPa SE 16.4 km/h 13.0 km/h 35% 0.0 mm CLR
19:29 29.2 °C 11.7 °C 1010.6 hPa ESE 11.9 km/h 20.4 km/h 34% 0.0 mm CLR
19:34 29.1 °C 11.6 °C 1010.7 hPa ESE 11.9 km/h 14.8 km/h 34% 0.0 mm CLR
19:39 29.0 °C 11.6 °C 1010.7 hPa ESE 13.0 km/h 20.4 km/h 34% 0.0 mm CLR
19:44 29.1 °C 11.6 °C 1010.7 hPa SE 13.0 km/h 16.7 km/h 34% 0.0 mm CLR
19:49 28.9 °C 11.4 °C 1010.7 hPa ESE 12.2 km/h 18.5 km/h 34% 0.0 mm CLR
19:54 28.8 °C 12.7 °C 1010.7 hPa ESE 12.2 km/h 13.0 km/h 37% 0.0 mm CLR
19:59 28.7 °C 13.4 °C 1010.7 hPa NE 10.3 km/h 15.6 km/h 39% 0.0 mm CLR
20:04 28.5 °C 12.0 °C 1010.8 hPa East 10.3 km/h 10.3 km/h 36% 0.0 mm CLR
20:09 28.4 °C 11.4 °C 1010.8 hPa East 10.3 km/h 18.5 km/h 35% 0.0 mm CLR
20:14 28.3 °C 11.8 °C 1010.8 hPa NNE 10.3 km/h 24.1 km/h 36% 0.0 mm CLR
20:19 28.0 °C 13.9 °C 1010.9 hPa NNE 14.0 km/h 22.5 km/h 42% 0.0 mm CLR
20:24 27.6 °C 13.9 °C 1010.9 hPa NE 14.0 km/h 23.3 km/h 43% 0.0 mm CLR
20:29 27.3 °C 14.3 °C 1010.9 hPa NE 16.1 km/h 22.2 km/h 45% 0.0 mm CLR
20:34 27.1 °C 14.5 °C 1011.1 hPa ENE 16.1 km/h 20.4 km/h 46% 0.0 mm CLR
20:39 26.8 °C 14.6 °C 1011.1 hPa NE 16.4 km/h 25.9 km/h 47% 0.0 mm CLR
20:44 26.6 °C 14.7 °C 1011.1 hPa NE 16.4 km/h 23.7 km/h 48% 0.0 mm CLR
20:49 26.4 °C 15.1 °C 1011.1 hPa ENE 17.2 km/h 22.2 km/h 50% 0.0 mm CLR
20:54 26.3 °C 15.3 °C 1011.1 hPa NE 17.2 km/h 24.1 km/h 51% 0.0 mm CLR
20:59 26.0 °C 15.4 °C 1011.1 hPa NE 15.6 km/h 24.1 km/h 52% 0.0 mm CLR
21:04 25.7 °C 15.7 °C 1011.2 hPa NNE 15.6 km/h 25.9 km/h 54% 0.0 mm CLR
21:09 25.5 °C 15.8 °C 1011.2 hPa NE 16.4 km/h 19.8 km/h 55% 0.0 mm CLR
21:14 25.2 °C 15.8 °C 1011.2 hPa NE 16.4 km/h 24.1 km/h 56% 0.0 mm CLR
21:19 25.0 °C 15.9 °C 1011.4 hPa East 15.6 km/h 18.5 km/h 57% 0.0 mm CLR
21:24 24.8 °C 15.7 °C 1011.4 hPa NE 15.6 km/h 20.4 km/h 57% 0.0 mm CLR
21:29 24.6 °C 16.1 °C 1011.4 hPa ENE 13.0 km/h 13.0 km/h 59% 0.0 mm CLR
21:34 24.6 °C 16.1 °C 1011.4 hPa ESE 13.0 km/h 14.8 km/h 59% 0.0 mm CLR
21:39 24.6 °C 16.3 °C 1011.4 hPa NNE 9.5 km/h 11.1 km/h 60% 0.0 mm CLR
21:44 24.4 °C 16.4 °C 1011.4 hPa NE 9.5 km/h 14.8 km/h 61% 0.0 mm CLR
21:49 24.3 °C 16.6 °C 1011.5 hPa East 9.5 km/h 11.1 km/h 62% 0.0 mm CLR
21:54 24.2 °C 16.4 °C 1011.5 hPa ENE 9.5 km/h 14.8 km/h 62% 0.0 mm CLR
21:59 24.1 °C 16.6 °C 1011.5 hPa ESE 8.4 km/h 13.7 km/h 63% 0.0 mm CLR
22:04 24.1 °C 16.9 °C 1011.7 hPa NNE 8.4 km/h 14.8 km/h 64% 0.0 mm CLR
22:09 23.9 °C 16.7 °C 1011.7 hPa NE 9.5 km/h 18.5 km/h 64% 0.0 mm CLR
22:14 23.8 °C 16.8 °C 1011.7 hPa NE 9.5 km/h 14.0 km/h 65% 0.0 mm CLR
22:19 23.7 °C 16.7 °C 1011.9 hPa NE 10.0 km/h 13.0 km/h 65% 0.0 mm CLR
22:24 23.6 °C 16.6 °C 1011.9 hPa NE 10.0 km/h 14.8 km/h 65% 0.0 mm CLR
22:29 23.5 °C 16.6 °C 1011.9 hPa East 10.3 km/h 17.2 km/h 65% 0.0 mm CLR
22:34 23.3 °C 17.1 °C 1012.1 hPa NE 10.3 km/h 10.0 km/h 68% 0.0 mm CLR
22:39 23.1 °C 17.1 °C 1012.1 hPa NNE 8.7 km/h 13.0 km/h 69% 0.0 mm CLR
22:44 22.9 °C 16.9 °C 1012.1 hPa NE 8.7 km/h 11.1 km/h 69% 0.0 mm CLR
22:49 22.7 °C 16.9 °C 1012.3 hPa NNE 9.5 km/h 14.8 km/h 70% 0.0 mm CLR
22:54 22.6 °C 16.8 °C 1012.3 hPa NNE 9.5 km/h 14.8 km/h 70% 0.0 mm CLR
22:59 22.7 °C 16.9 °C 1012.3 hPa NE 8.7 km/h 9.3 km/h 70% 0.0 mm CLR
23:04 22.6 °C 16.8 °C 1012.5 hPa ENE 8.7 km/h 13.0 km/h 70% 0.0 mm CLR
23:09 22.5 °C 17.0 °C 1012.5 hPa ENE 9.5 km/h 13.0 km/h 71% 0.0 mm CLR
23:14 22.4 °C 17.1 °C 1012.5 hPa NNE 9.5 km/h 22.2 km/h 72% 0.0 mm CLR
23:19 22.2 °C 16.9 °C 1012.6 hPa ENE 10.0 km/h 13.0 km/h 72% 0.0 mm CLR
23:24 22.1 °C 17.1 °C 1012.6 hPa NE 10.0 km/h 11.1 km/h 73% 0.0 mm CLR
23:29 21.9 °C 16.8 °C 1012.6 hPa NNE 8.7 km/h 11.9 km/h 73% 0.0 mm CLR
23:34 21.8 °C 16.9 °C 1012.8 hPa NE 8.7 km/h 14.8 km/h 74% 0.0 mm CLR
23:39 21.7 °C 17.1 °C 1012.8 hPa NNE 10.0 km/h 16.1 km/h 75% 0.0 mm CLR
23:44 21.6 °C 17.2 °C 1012.8 hPa NE 10.0 km/h 11.1 km/h 76% 0.0 mm CLR
23:49 21.6 °C 17.4 °C 1012.7 hPa NE 8.7 km/h 13.0 km/h 77% 0.0 mm CLR
23:54 21.5 °C 17.3 °C 1012.7 hPa East 8.7 km/h 11.1 km/h 77% 0.0 mm CLR
23:59 21.5 °C 17.3 °C 1012.7 hPa NE 8.4 km/h 9.3 km/h 77% 0.0 mm CLR
Murcia-Puente Tocinos, España
Compliments of Weather Underground - 2.75 mb

La estación de MeteoMurcia.com, publica sus datos en los siguientes proyectos:

Weather Underground PWS IMURCIAP2 Meteoclimatic www.awekas.at

W3Counter
Web Analytics